Metar z połowy godziny Komunikat METAR ze strony awiacja.imgw.pl Metar G30 EPLY METAR EPLY 230800Z 12012KT 8000 OVC018 M04/M07 Q1008 RMK M037 079 8/8=